Time;durP1;ratioP1;P1;durP2;ratioP2;P2;SDS_P1;SDS_P2;PMS_P1;PMS_P2;Temp;Humidity;BMP_temperature;BMP_pressure;BME280_temperature;BME280_humidity;BME280_pressure;Samples;Min_cycle;Max_cycle;Signal;HPM_P1;HPM_P2
2022/06/16 00:02:04;;;;;;;5.70;5.30;;;;;;;;;;5071541;28;20472;-76
2022/06/16 00:04:31;;;;;;;6.13;5.73;;;;;;;;;;5071192;28;20490;-77
2022/06/16 00:06:59;;;;;;;5.60;5.20;;;;;;;;;;5071585;28;20445;-77
2022/06/16 00:09:26;;;;;;;6.53;5.93;;;;;;;;;;5054444;28;20449;-76
2022/06/16 00:11:55;;;;;;;5.97;5.47;;;;;;;;;;5051445;28;20453;-77
2022/06/16 00:14:23;;;;;;;5.90;5.40;;;;;;;;;;5051273;28;20554;-77
2022/06/16 00:16:50;;;;;;;7.03;6.43;;;;;;;;;;5050188;28;20521;-77
2022/06/16 00:19:17;;;;;;;5.67;5.27;;;;;;;;;;5051166;28;20536;-77
2022/06/16 00:21:44;;;;;;;6.30;5.40;;;;;;;;;;5051467;28;20441;-78
2022/06/16 00:24:11;;;;;;;5.93;5.43;;;;;;;;;;5051616;28;20441;-78
2022/06/16 00:26:38;;;;;;;7.07;6.30;;;;;;;;;;5051114;28;20550;-77
2022/06/16 00:29:06;;;;;;;6.37;5.80;;;;;;;;;;5051130;28;20975;-78
2022/06/16 00:31:33;;;;;;;5.63;5.23;;;;;;;;;;5050635;28;20469;-82
2022/06/16 00:34:00;;;;;;;6.40;5.80;;;;;;;;;;5050903;28;20491;-77
2022/06/16 00:36:27;;;;;;;5.87;5.37;;;;;;;;;;5051902;28;20454;-77
2022/06/16 00:38:54;;;;;;;5.80;5.50;;;;;;;;;;5055924;28;20453;-78
2022/06/16 00:41:21;;;;;;;6.37;5.77;;;;;;;;;;5054904;28;20472;-78
2022/06/16 00:43:48;;;;;;;5.60;5.20;;;;;;;;;;5055018;28;21007;-77
2022/06/16 00:46:18;;;;;;;6.00;5.60;;;;;;;;;;5054143;28;21063;-77
2022/06/16 00:48:47;;;;;;;7.13;6.57;;;;;;;;;;5054970;28;20469;-77
2022/06/16 00:51:18;;;;;;;6.10;5.60;;;;;;;;;;5051655;28;20522;-78
2022/06/16 00:53:46;;;;;;;7.90;5.60;;;;;;;;;;5050911;28;20426;-77
2022/06/16 00:56:15;;;;;;;6.80;6.10;;;;;;;;;;5050880;28;20491;-78
2022/06/16 00:58:45;;;;;;;6.43;5.83;;;;;;;;;;5055140;28;20440;-77
2022/06/16 01:01:13;;;;;;;6.00;5.53;;;;;;;;;;5055575;28;20508;-78
2022/06/16 01:06:27;;;;;;;6.83;6.03;;;;;;;;;;5053339;28;20460;-78
2022/06/16 01:08:57;;;;;;;6.90;6.30;;;;;;;;;;5062676;28;20459;-78
2022/06/16 01:14:19;;;;;;;5.87;5.40;;;;;;;;;;5070085;28;20762;-78
2022/06/16 01:16:48;;;;;;;8.50;6.07;;;;;;;;;;5070354;28;20483;-78
2022/06/16 01:19:24;;;;;;;6.83;6.13;;;;;;;;;;5081887;28;20534;-78
2022/06/16 01:21:58;;;;;;;6.10;5.50;;;;;;;;;;5073210;28;20510;-78
2022/06/16 01:24:34;;;;;;;6.20;5.80;;;;;;;;;;5070320;28;20494;-78
2022/06/16 01:27:13;;;;;;;6.30;5.80;;;;;;;;;;5069998;28;20482;-78
2022/06/16 01:29:46;;;;;;;6.03;5.60;;;;;;;;;;5071558;28;21021;-78
2022/06/16 01:32:16;;;;;;;7.10;6.53;;;;;;;;;;5071438;28;20541;-78
2022/06/16 01:34:47;;;;;;;5.97;5.47;;;;;;;;;;5063880;28;20457;-78
2022/06/16 01:37:17;;;;;;;6.20;5.70;;;;;;;;;;5063807;28;20491;-78
2022/06/16 01:39:49;;;;;;;6.53;5.87;;;;;;;;;;5069744;28;20887;-78
2022/06/16 01:42:18;;;;;;;6.37;5.87;;;;;;;;;;5069539;28;20517;-78
2022/06/16 01:44:53;;;;;;;6.97;6.47;;;;;;;;;;5062417;28;20448;-79
2022/06/16 01:47:21;;;;;;;8.50;6.40;;;;;;;;;;5070617;28;20440;-78
2022/06/16 01:49:50;;;;;;;6.90;6.40;;;;;;;;;;5067280;28;20924;-78
2022/06/16 01:52:20;;;;;;;6.80;6.30;;;;;;;;;;5070674;28;20470;-78
2022/06/16 01:54:48;;;;;;;6.70;6.17;;;;;;;;;;5069860;28;20531;-78
2022/06/16 01:57:18;;;;;;;6.87;6.37;;;;;;;;;;5070117;28;20547;-79
2022/06/16 01:59:50;;;;;;;6.50;5.90;;;;;;;;;;5069787;28;20890;-78
2022/06/16 02:02:18;;;;;;;6.67;6.00;;;;;;;;;;5070014;28;20441;-78
2022/06/16 02:04:48;;;;;;;7.63;7.13;;;;;;;;;;5070144;28;20471;-78
2022/06/16 02:07:17;;;;;;;7.63;6.97;;;;;;;;;;5070267;28;20484;-78
2022/06/16 02:09:46;;;;;;;8.07;7.37;;;;;;;;;;5050590;28;20465;-78
2022/06/16 02:12:55;;;;;;;6.63;6.17;;;;;;;;;;5050405;28;20493;-78
2022/06/16 02:15:07;;;;;;;7.67;6.93;;;;;;;;;;5049598;28;20459;-78
2022/06/16 02:17:34;;;;;;;7.93;7.13;;;;;;;;;;5049844;28;20442;-77
2022/06/16 02:20:01;;;;;;;7.60;6.90;;;;;;;;;;5049912;28;20527;-78
2022/06/16 02:22:28;;;;;;;8.13;7.53;;;;;;;;;;5049536;28;20441;-78
2022/06/16 02:24:55;;;;;;;8.07;7.37;;;;;;;;;;5049828;28;20779;-77
2022/06/16 02:27:22;;;;;;;8.20;7.50;;;;;;;;;;5049589;28;20499;-78
2022/06/16 02:29:49;;;;;;;8.30;7.60;;;;;;;;;;5049258;28;20466;-78
2022/06/16 02:32:23;;;;;;;7.90;7.30;;;;;;;;;;5048963;28;20511;-77
2022/06/16 02:34:55;;;;;;;8.70;7.80;;;;;;;;;;5049270;28;20437;-78
2022/06/16 02:37:30;;;;;;;8.00;7.40;;;;;;;;;;5049779;28;20434;-77
2022/06/16 02:40:08;;;;;;;8.13;7.53;;;;;;;;;;5050870;28;20460;-77
2022/06/16 02:42:39;;;;;;;8.23;7.53;;;;;;;;;;5052745;28;20502;-80
2022/06/16 02:45:12;;;;;;;9.60;8.80;;;;;;;;;;5052821;28;20449;-77
2022/06/16 02:47:48;;;;;;;9.50;8.60;;;;;;;;;;5053340;28;20460;-78
2022/06/16 02:50:21;;;;;;;8.90;8.20;;;;;;;;;;5052911;28;21015;-78
2022/06/16 02:52:50;;;;;;;8.63;7.63;;;;;;;;;;5052596;28;20648;-78
2022/06/16 02:55:20;;;;;;;10.20;9.20;;;;;;;;;;5052562;28;20556;-77
2022/06/16 02:57:48;;;;;;;10.30;9.40;;;;;;;;;;5052576;28;20445;-77
2022/06/16 03:00:16;;;;;;;11.20;9.30;;;;;;;;;;5052929;28;20842;-78
2022/06/16 03:02:45;;;;;;;9.77;8.60;;;;;;;;;;5052293;28;20445;-78
2022/06/16 03:05:14;;;;;;;9.37;8.57;;;;;;;;;;5052534;28;20987;-78
2022/06/16 03:07:41;;;;;;;8.63;8.03;;;;;;;;;;5052335;28;21014;-77
2022/06/16 03:10:09;;;;;;;9.47;8.67;;;;;;;;;;5052634;28;20940;-77
2022/06/16 03:12:36;;;;;;;9.30;8.50;;;;;;;;;;5052400;28;20987;-77
2022/06/16 03:15:03;;;;;;;9.10;8.20;;;;;;;;;;5052792;28;20499;-78
2022/06/16 03:17:31;;;;;;;9.90;8.10;;;;;;;;;;5052344;28;20858;-77
2022/06/16 03:19:59;;;;;;;9.40;8.73;;;;;;;;;;5052309;28;20560;-78
2022/06/16 03:22:26;;;;;;;8.30;7.60;;;;;;;;;;5052228;28;20527;-77
2022/06/16 03:24:53;;;;;;;7.80;7.20;;;;;;;;;;5052448;28;20453;-77
2022/06/16 03:27:20;;;;;;;8.60;7.90;;;;;;;;;;5052138;28;20574;-78
2022/06/16 03:29:47;;;;;;;9.17;8.40;;;;;;;;;;5052233;28;20535;-78
2022/06/16 03:32:14;;;;;;;9.10;8.30;;;;;;;;;;5051777;28;21018;-77
2022/06/16 03:34:41;;;;;;;9.07;8.43;;;;;;;;;;5052148;28;20453;-78
2022/06/16 03:37:10;;;;;;;9.60;8.80;;;;;;;;;;5052079;28;20446;-78
2022/06/16 03:39:37;;;;;;;9.33;8.50;;;;;;;;;;5052430;28;20461;-78
2022/06/16 03:42:04;;;;;;;10.30;9.50;;;;;;;;;;5052175;28;20445;-77
2022/06/16 03:44:31;;;;;;;10.67;9.53;;;;;;;;;;5051947;28;20444;-78
2022/06/16 03:46:58;;;;;;;10.67;9.73;;;;;;;;;;5051937;28;20547;-78
2022/06/16 03:49:25;;;;;;;10.00;9.20;;;;;;;;;;5051760;28;20491;-78
2022/06/16 03:51:52;;;;;;;9.80;8.90;;;;;;;;;;5052084;28;20519;-78
2022/06/16 03:54:21;;;;;;;10.40;9.53;;;;;;;;;;5051596;28;20445;-77
2022/06/16 03:56:48;;;;;;;9.47;8.77;;;;;;;;;;5051760;28;20446;-78
2022/06/16 03:59:15;;;;;;;9.57;8.87;;;;;;;;;;5051636;28;20449;-78
2022/06/16 04:01:42;;;;;;;9.00;8.30;;;;;;;;;;5051664;28;20836;-77
2022/06/16 04:04:09;;;;;;;9.67;8.87;;;;;;;;;;5051145;28;20449;-77
2022/06/16 04:06:37;;;;;;;9.60;8.63;;;;;;;;;;5051784;28;20572;-78
2022/06/16 04:09:05;;;;;;;9.33;8.53;;;;;;;;;;5065204;28;20471;-77
2022/06/16 04:11:33;;;;;;;9.70;8.80;;;;;;;;;;5071152;28;21036;-77
2022/06/16 04:14:02;;;;;;;9.93;8.40;;;;;;;;;;5071024;28;20538;-78
2022/06/16 04:16:34;;;;;;;8.07;7.47;;;;;;;;;;5070970;28;20444;-77
2022/06/16 04:19:01;;;;;;;8.77;8.10;;;;;;;;;;5071177;28;20449;-78
2022/06/16 04:21:29;;;;;;;8.20;7.50;;;;;;;;;;5070997;28;20472;-76
2022/06/16 04:23:56;;;;;;;9.43;8.73;;;;;;;;;;5070887;28;20490;-77
2022/06/16 04:26:24;;;;;;;10.00;9.03;;;;;;;;;;5070976;28;20550;-78
2022/06/16 04:28:52;;;;;;;8.63;8.00;;;;;;;;;;5071329;28;20456;-78
2022/06/16 04:31:19;;;;;;;9.50;8.60;;;;;;;;;;5066640;28;20843;-78
2022/06/16 04:33:46;;;;;;;8.67;8.07;;;;;;;;;;5070760;28;20444;-78
2022/06/16 04:36:14;;;;;;;8.17;7.57;;;;;;;;;;5070878;28;20441;-77
2022/06/16 04:38:41;;;;;;;8.17;7.57;;;;;;;;;;5070785;28;20438;-78
2022/06/16 04:41:08;;;;;;;8.93;8.03;;;;;;;;;;5070686;28;20467;-78
2022/06/16 04:43:35;;;;;;;9.27;8.47;;;;;;;;;;5070339;28;20444;-78
2022/06/16 04:46:05;;;;;;;8.83;8.20;;;;;;;;;;5070549;28;20548;-77
2022/06/16 04:48:32;;;;;;;8.43;7.67;;;;;;;;;;5070586;28;20479;-77
2022/06/16 04:51:00;;;;;;;8.53;7.73;;;;;;;;;;5070381;28;20533;-78
2022/06/16 04:53:27;;;;;;;7.83;7.23;;;;;;;;;;5069818;28;20932;-77
2022/06/16 04:55:55;;;;;;;8.23;7.53;;;;;;;;;;5070445;28;20462;-77
2022/06/16 04:58:22;;;;;;;7.87;7.17;;;;;;;;;;5070280;28;20490;-77
2022/06/16 05:00:49;;;;;;;6.87;6.40;;;;;;;;;;5070380;28;20463;-78
2022/06/16 05:03:18;;;;;;;6.70;6.30;;;;;;;;;;5070675;28;20440;-76
2022/06/16 05:05:46;;;;;;;7.33;6.83;;;;;;;;;;5070318;28;20499;-76
2022/06/16 05:08:13;;;;;;;7.37;6.87;;;;;;;;;;5070014;28;20472;-77
2022/06/16 05:10:40;;;;;;;7.80;6.63;;;;;;;;;;5069817;28;20514;-76
2022/06/16 05:13:07;;;;;;;7.97;7.27;;;;;;;;;;5070131;28;20441;-76
2022/06/16 05:15:34;;;;;;;7.27;6.67;;;;;;;;;;5070418;28;20490;-76
2022/06/16 05:18:02;;;;;;;7.87;7.27;;;;;;;;;;5070310;28;20437;-76
2022/06/16 05:20:30;;;;;;;7.43;6.83;;;;;;;;;;5070052;28;20460;-76
2022/06/16 05:22:57;;;;;;;6.97;6.50;;;;;;;;;;5069628;28;20917;-75
2022/06/16 05:25:24;;;;;;;7.33;6.73;;;;;;;;;;5069908;28;20510;-76
2022/06/16 05:27:51;;;;;;;8.00;7.20;;;;;;;;;;5070084;28;20996;-76
2022/06/16 05:30:18;;;;;;;7.87;7.37;;;;;;;;;;5069875;28;20514;-76
2022/06/16 05:32:46;;;;;;;8.43;7.53;;;;;;;;;;5070334;28;20517;-76
2022/06/16 05:35:13;;;;;;;7.20;6.60;;;;;;;;;;5058927;28;20837;-76
2022/06/16 05:37:41;;;;;;;8.00;7.30;;;;;;;;;;5066894;28;20448;-76
2022/06/16 05:40:09;;;;;;;7.70;7.07;;;;;;;;;;5066236;28;20464;-76
2022/06/16 05:42:36;;;;;;;7.40;6.90;;;;;;;;;;5061841;28;20977;-76
2022/06/16 05:45:03;;;;;;;7.50;6.80;;;;;;;;;;5057596;28;20430;-77
2022/06/16 05:47:30;;;;;;;9.40;6.87;;;;;;;;;;5051359;28;20484;-77
2022/06/16 05:49:57;;;;;;;7.70;6.97;;;;;;;;;;5051014;28;20556;-77
2022/06/16 05:52:24;;;;;;;8.63;6.80;;;;;;;;;;5051163;28;20449;-76
2022/06/16 05:54:54;;;;;;;7.33;6.73;;;;;;;;;;5051077;28;20441;-76
2022/06/16 05:57:21;;;;;;;9.80;7.53;;;;;;;;;;5051325;28;20437;-76
2022/06/16 05:59:48;;;;;;;6.93;6.43;;;;;;;;;;5051580;28;20545;-76
2022/06/16 06:02:16;;;;;;;6.87;6.37;;;;;;;;;;5057235;28;20437;-76
2022/06/16 06:04:43;;;;;;;6.70;6.20;;;;;;;;;;5051147;28;20461;-77
2022/06/16 06:07:11;;;;;;;6.67;6.17;;;;;;;;;;5054440;28;21015;-76
2022/06/16 06:18:05;;;;;;;6.83;6.23;;;;;;;;;;5072468;28;20448;-77
2022/06/16 06:20:32;;;;;;;7.20;6.80;;;;;;;;;;5068670;28;20476;-77
2022/06/16 06:22:59;;;;;;;11.20;6.37;;;;;;;;;;5066802;28;20547;-76
2022/06/16 06:25:26;;;;;;;7.00;6.40;;;;;;;;;;5067620;28;20436;-76
2022/06/16 06:27:55;;;;;;;7.13;6.63;;;;;;;;;;5066388;28;20495;-77
2022/06/16 06:30:23;;;;;;;6.17;5.73;;;;;;;;;;5067908;28;20546;-76
2022/06/16 06:32:50;;;;;;;7.10;6.60;;;;;;;;;;5060501;28;20449;-76
2022/06/16 06:35:18;;;;;;;6.37;5.77;;;;;;;;;;5064337;28;20469;-77
2022/06/16 06:37:45;;;;;;;6.83;6.33;;;;;;;;;;5064557;28;20441;-76
2022/06/16 06:40:17;;;;;;;7.23;6.63;;;;;;;;;;5061375;28;20988;-76
2022/06/16 06:42:44;;;;;;;7.07;6.40;;;;;;;;;;5054780;28;20524;-77
2022/06/16 06:45:13;;;;;;;6.50;6.00;;;;;;;;;;5054144;28;20441;-77
2022/06/16 06:47:40;;;;;;;6.47;5.97;;;;;;;;;;5054185;28;20473;-77
2022/06/16 06:50:08;;;;;;;7.17;6.57;;;;;;;;;;5054015;28;20465;-76
2022/06/16 06:52:35;;;;;;;6.87;6.43;;;;;;;;;;5053715;28;20437;-77
2022/06/16 06:55:02;;;;;;;7.10;6.50;;;;;;;;;;5056034;28;20450;-76
2022/06/16 06:57:31;;;;;;;6.57;5.80;;;;;;;;;;5069959;28;20448;-77
2022/06/16 06:59:58;;;;;;;6.83;6.43;;;;;;;;;;5074037;28;20543;-77
2022/06/16 07:02:27;;;;;;;7.20;6.70;;;;;;;;;;5074291;28;20444;-77
2022/06/16 07:04:53;;;;;;;7.07;6.47;;;;;;;;;;5074067;28;20873;-78
2022/06/16 07:07:22;;;;;;;6.70;6.30;;;;;;;;;;5073714;28;20468;-75
2022/06/16 07:09:49;;;;;;;6.77;6.10;;;;;;;;;;5053952;28;20544;-76
2022/06/16 07:12:17;;;;;;;6.17;5.67;;;;;;;;;;5054217;28;20441;-77
2022/06/16 07:14:45;;;;;;;6.23;5.67;;;;;;;;;;5053400;28;20433;-76
2022/06/16 07:17:12;;;;;;;6.60;6.00;;;;;;;;;;5053471;28;21000;-77
2022/06/16 07:19:40;;;;;;;6.50;5.90;;;;;;;;;;5053308;28;20957;-76
2022/06/16 07:22:08;;;;;;;6.53;6.00;;;;;;;;;;5053887;28;20519;-76
2022/06/16 07:24:35;;;;;;;6.00;5.60;;;;;;;;;;5053418;28;20494;-77
2022/06/16 07:27:02;;;;;;;6.70;5.80;;;;;;;;;;5052945;28;20714;-75
2022/06/16 07:29:29;;;;;;;6.00;5.50;;;;;;;;;;5053361;28;20510;-76
2022/06/16 07:31:58;;;;;;;6.93;6.23;;;;;;;;;;5053041;28;20526;-76
2022/06/16 07:34:25;;;;;;;6.20;5.80;;;;;;;;;;5053014;28;20438;-77
2022/06/16 07:36:54;;;;;;;6.20;5.77;;;;;;;;;;5053333;28;20481;-76
2022/06/16 07:39:21;;;;;;;6.37;5.97;;;;;;;;;;5053427;28;20438;-77
2022/06/16 07:41:48;;;;;;;6.53;6.10;;;;;;;;;;5053176;28;20575;-77
2022/06/16 07:44:16;;;;;;;7.53;6.47;;;;;;;;;;5052934;28;21035;-77
2022/06/16 07:46:44;;;;;;;7.07;6.40;;;;;;;;;;5053282;28;20549;-76
2022/06/16 07:49:12;;;;;;;6.40;5.80;;;;;;;;;;5053048;28;20449;-77
2022/06/16 07:51:39;;;;;;;6.30;5.80;;;;;;;;;;5053519;28;20508;-77
2022/06/16 07:54:08;;;;;;;6.03;5.43;;;;;;;;;;5053585;28;20446;-77
2022/06/16 07:56:35;;;;;;;6.07;5.57;;;;;;;;;;5051233;28;20826;-77
2022/06/16 07:59:02;;;;;;;6.30;5.80;;;;;;;;;;5052436;28;20457;-76
2022/06/16 08:01:29;;;;;;;6.40;6.00;;;;;;;;;;5052379;28;20489;-77
2022/06/16 08:03:58;;;;;;;6.53;5.90;;;;;;;;;;5052724;28;20520;-77
2022/06/16 08:06:27;;;;;;;7.07;6.57;;;;;;;;;;5052696;28;20485;-77
2022/06/16 08:08:54;;;;;;;6.53;6.03;;;;;;;;;;5064624;28;20546;-77
2022/06/16 08:14:07;;;;;;;6.53;5.83;;;;;;;;;;5072157;28;20416;-78
2022/06/16 08:16:35;;;;;;;6.17;5.50;;;;;;;;;;5074123;28;20441;-79
2022/06/16 08:19:03;;;;;;;6.30;5.90;;;;;;;;;;5073786;28;20449;-77
2022/06/16 08:21:30;;;;;;;7.73;6.10;;;;;;;;;;5072650;28;20522;-79
2022/06/16 08:23:57;;;;;;;6.20;5.80;;;;;;;;;;5072611;28;20448;-77
2022/06/16 08:26:26;;;;;;;7.10;6.50;;;;;;;;;;5072478;28;20445;-77
2022/06/16 08:28:54;;;;;;;6.77;6.17;;;;;;;;;;5072156;28;20511;-76
2022/06/16 08:31:21;;;;;;;6.73;6.13;;;;;;;;;;5078931;28;20810;-76
2022/06/16 08:33:48;;;;;;;7.10;6.13;;;;;;;;;;5072209;28;20447;-75
2022/06/16 08:36:16;;;;;;;6.17;5.67;;;;;;;;;;5073221;28;20448;-76
2022/06/16 08:38:43;;;;;;;6.07;5.60;;;;;;;;;;5071570;28;20440;-77
2022/06/16 08:41:15;;;;;;;6.20;5.70;;;;;;;;;;5071729;28;20457;-76
2022/06/16 08:43:45;;;;;;;7.23;5.27;;;;;;;;;;5072205;28;20446;-77
2022/06/16 08:46:16;;;;;;;6.27;5.50;;;;;;;;;;5072192;28;20837;-77
2022/06/16 08:48:47;;;;;;;5.90;5.30;;;;;;;;;;5072354;28;20472;-76
2022/06/16 08:51:17;;;;;;;5.20;4.90;;;;;;;;;;5072026;28;20525;-76
2022/06/16 08:53:56;;;;;;;7.30;4.90;;;;;;;;;;5074716;28;20510;-76
2022/06/16 08:56:28;;;;;;;5.27;4.93;;;;;;;;;;5075894;28;20451;-77
2022/06/16 08:59:00;;;;;;;5.40;5.00;;;;;;;;;;5072278;28;20491;-77
2022/06/16 09:01:30;;;;;;;5.20;4.80;;;;;;;;;;5072122;28;20514;-77
2022/06/16 09:04:00;;;;;;;5.20;4.80;;;;;;;;;;5074591;28;20487;-77
2022/06/16 09:06:32;;;;;;;8.43;5.63;;;;;;;;;;5077043;28;20963;-77
2022/06/16 09:09:03;;;;;;;5.33;4.90;;;;;;;;;;5065317;28;20485;-76
2022/06/16 09:11:38;;;;;;;6.20;5.60;;;;;;;;;;5058919;28;20503;-78
2022/06/16 09:15:10;;;;;;;5.87;5.27;;;;;;;;;;5060010;28;20522;-76
2022/06/16 09:17:13;;;;;;;6.20;5.50;;;;;;;;;;5060353;28;20467;-76
2022/06/16 09:19:47;;;;;;;6.30;5.87;;;;;;;;;;5056646;28;20477;-77
2022/06/16 09:22:21;;;;;;;5.77;5.37;;;;;;;;;;5053090;28;20437;-77
2022/06/16 09:24:59;;;;;;;6.77;6.17;;;;;;;;;;5052818;28;20472;-77
2022/06/16 09:27:28;;;;;;;6.13;5.73;;;;;;;;;;5052619;28;20437;-79
2022/06/16 09:29:58;;;;;;;6.20;5.63;;;;;;;;;;5053614;28;20472;-77
2022/06/16 09:32:29;;;;;;;5.80;5.27;;;;;;;;;;5052676;28;20914;-79
2022/06/16 09:34:59;;;;;;;6.10;5.50;;;;;;;;;;5053044;28;20430;-78
2022/06/16 09:37:28;;;;;;;6.17;5.63;;;;;;;;;;5052931;28;20499;-79
2022/06/16 09:39:58;;;;;;;6.37;5.80;;;;;;;;;;5052130;28;20469;-77
2022/06/16 09:42:35;;;;;;;6.00;5.60;;;;;;;;;;5052199;28;20499;-77
2022/06/16 09:45:06;;;;;;;5.57;5.07;;;;;;;;;;5052017;28;20449;-77
2022/06/16 09:47:35;;;;;;;9.70;5.57;;;;;;;;;;5052210;28;20448;-78
2022/06/16 09:50:07;;;;;;;5.53;5.13;;;;;;;;;;5056273;28;20465;-78
2022/06/16 09:52:36;;;;;;;6.30;5.80;;;;;;;;;;5056533;28;21031;-79
2022/06/16 09:55:06;;;;;;;10.33;5.80;;;;;;;;;;5056848;28;20533;-79
2022/06/16 09:57:35;;;;;;;6.17;5.70;;;;;;;;;;5056602;28;20503;-76
2022/06/16 10:00:06;;;;;;;5.97;5.47;;;;;;;;;;5057129;28;20507;-78
2022/06/16 10:02:40;;;;;;;5.53;5.13;;;;;;;;;;5056235;28;20442;-77
2022/06/16 10:05:10;;;;;;;5.80;5.37;;;;;;;;;;5055890;28;20442;-78
2022/06/16 10:07:41;;;;;;;6.00;5.50;;;;;;;;;;5057764;28;20441;-78
2022/06/16 10:10:11;;;;;;;6.20;5.60;;;;;;;;;;5076000;28;20811;-78
2022/06/16 10:12:45;;;;;;;5.70;5.17;;;;;;;;;;5076142;28;20445;-78
2022/06/16 10:15:15;;;;;;;5.77;5.27;;;;;;;;;;5075942;28;20455;-78
2022/06/16 10:17:45;;;;;;;5.40;5.00;;;;;;;;;;5075973;28;20490;-78
2022/06/16 10:20:14;;;;;;;5.37;4.97;;;;;;;;;;5076125;28;20464;-78
2022/06/16 10:22:44;;;;;;;6.10;5.60;;;;;;;;;;5075346;28;20474;-77
2022/06/16 10:25:13;;;;;;;5.37;4.87;;;;;;;;;;5075860;28;20436;-78
2022/06/16 10:27:42;;;;;;;5.83;4.93;;;;;;;;;;5075782;28;20508;-78
2022/06/16 10:30:18;;;;;;;5.40;5.00;;;;;;;;;;5076063;28;20551;-77
2022/06/16 10:32:47;;;;;;;5.33;4.77;;;;;;;;;;5074868;28;20447;-78
2022/06/16 10:35:17;;;;;;;5.40;4.90;;;;;;;;;;5075721;28;20445;-79
2022/06/16 10:37:44;;;;;;;5.37;4.97;;;;;;;;;;5074919;28;20449;-78
2022/06/16 10:40:13;;;;;;;5.00;4.57;;;;;;;;;;5075166;28;20890;-77
2022/06/16 10:42:42;;;;;;;6.83;5.30;;;;;;;;;;5074944;28;20896;-78
2022/06/16 10:45:10;;;;;;;5.50;5.17;;;;;;;;;;5074828;28;21001;-77
2022/06/16 10:47:40;;;;;;;5.07;4.67;;;;;;;;;;5075122;28;20535;-77
2022/06/16 10:50:16;;;;;;;5.40;5.00;;;;;;;;;;5075069;28;20468;-77
2022/06/16 10:52:51;;;;;;;5.33;4.90;;;;;;;;;;5075253;28;20448;-77
2022/06/16 10:55:20;;;;;;;6.10;4.70;;;;;;;;;;5074515;28;20892;-77
2022/06/16 10:57:48;;;;;;;4.97;4.57;;;;;;;;;;5075566;28;20521;-77
2022/06/16 11:00:16;;;;;;;4.57;4.27;;;;;;;;;;5073838;28;20472;-76
2022/06/16 11:02:56;;;;;;;4.90;4.60;;;;;;;;;;5074758;28;20498;-77
2022/06/16 11:05:24;;;;;;;8.80;5.10;;;;;;;;;;5074900;28;20856;-77
2022/06/16 11:07:52;;;;;;;6.00;5.40;;;;;;;;;;5070246;28;20446;-77
2022/06/16 11:10:29;;;;;;;5.87;4.73;;;;;;;;;;5055548;28;20469;-78
2022/06/16 11:12:56;;;;;;;5.43;5.00;;;;;;;;;;5054502;28;20592;-77
2022/06/16 11:15:25;;;;;;;5.40;4.97;;;;;;;;;;5055466;28;20445;-77
2022/06/16 11:17:54;;;;;;;4.80;4.50;;;;;;;;;;5054884;28;20446;-77
2022/06/16 11:20:34;;;;;;;5.47;4.90;;;;;;;;;;5053380;28;20883;-76
2022/06/16 11:23:01;;;;;;;5.13;4.73;;;;;;;;;;5053825;28;20495;-77
2022/06/16 11:25:30;;;;;;;5.07;4.57;;;;;;;;;;5054441;28;20503;-76
2022/06/16 11:27:58;;;;;;;5.27;4.80;;;;;;;;;;5053948;28;21009;-77
2022/06/16 11:30:30;;;;;;;5.77;5.00;;;;;;;;;;5054028;28;20515;-77
2022/06/16 11:32:57;;;;;;;5.17;4.80;;;;;;;;;;5053730;28;20475;-76
2022/06/16 11:35:28;;;;;;;5.23;4.83;;;;;;;;;;5053813;28;20515;-76
2022/06/16 11:37:58;;;;;;;6.80;4.97;;;;;;;;;;5053978;28;20449;-77
2022/06/16 11:40:28;;;;;;;5.40;4.93;;;;;;;;;;5053329;28;20956;-77
2022/06/16 11:43:01;;;;;;;5.07;4.67;;;;;;;;;;5053668;28;20446;-80
2022/06/16 11:45:32;;;;;;;4.80;4.40;;;;;;;;;;5053818;28;20449;-77
2022/06/16 11:48:03;;;;;;;5.10;4.60;;;;;;;;;;5054106;28;20479;-76
2022/06/16 11:50:35;;;;;;;5.00;4.60;;;;;;;;;;5054216;28;20465;-77
2022/06/16 11:53:06;;;;;;;5.50;4.67;;;;;;;;;;5053470;28;20507;-79
2022/06/16 11:55:36;;;;;;;4.80;4.37;;;;;;;;;;5053419;28;20441;-79
2022/06/16 11:58:11;;;;;;;5.20;4.70;;;;;;;;;;5053717;28;20437;-78
2022/06/16 12:00:39;;;;;;;5.13;4.20;;;;;;;;;;5052852;28;20475;-76
2022/06/16 12:03:30;;;;;;;3.87;3.63;;;;;;;;;;5052768;28;20801;-77
2022/06/16 12:06:14;;;;;;;4.80;4.40;;;;;;;;;;5053968;28;20441;-77
2022/06/16 12:08:52;;;;;;;7.10;4.67;;;;;;;;;;5064143;28;20885;-78
2022/06/16 12:11:24;;;;;;;8.27;3.97;;;;;;;;;;5072641;28;20546;-78
2022/06/16 12:13:56;;;;;;;5.03;3.57;;;;;;;;;;5072224;28;20424;-77
2022/06/16 12:16:26;;;;;;;6.83;4.93;;;;;;;;;;5073458;28;20472;-77
2022/06/16 12:18:59;;;;;;;5.60;4.47;;;;;;;;;;5075059;28;20960;-77
2022/06/16 12:21:32;;;;;;;4.60;4.20;;;;;;;;;;5073262;28;20487;-77
2022/06/16 12:24:00;;;;;;;4.87;4.30;;;;;;;;;;5072777;28;20871;-77
2022/06/16 12:26:30;;;;;;;5.80;3.90;;;;;;;;;;5073679;28;20522;-78
2022/06/16 12:29:09;;;;;;;5.33;4.60;;;;;;;;;;5073064;28;20538;-78
2022/06/16 12:31:41;;;;;;;4.43;4.10;;;;;;;;;;5072916;28;20476;-78
2022/06/16 12:34:11;;;;;;;4.80;4.40;;;;;;;;;;5072318;28;20531;-78
2022/06/16 12:36:41;;;;;;;5.47;4.07;;;;;;;;;;5073300;28;20441;-78
2022/06/16 12:39:10;;;;;;;4.07;3.67;;;;;;;;;;5073285;28;20436;-78
2022/06/16 12:41:39;;;;;;;4.77;4.47;;;;;;;;;;5072512;28;20510;-78
2022/06/16 12:44:10;;;;;;;5.23;3.87;;;;;;;;;;5072787;28;20490;-78
2022/06/16 12:46:40;;;;;;;4.70;4.27;;;;;;;;;;5072377;28;20449;-78
2022/06/16 12:49:10;;;;;;;4.67;4.27;;;;;;;;;;5071890;28;20479;-79
2022/06/16 12:51:44;;;;;;;7.53;4.00;;;;;;;;;;5072286;28;20533;-76
2022/06/16 12:54:15;;;;;;;4.70;4.27;;;;;;;;;;5071828;28;20449;-76
2022/06/16 12:56:46;;;;;;;4.90;4.60;;;;;;;;;;5071920;28;20472;-77
2022/06/16 12:59:16;;;;;;;4.97;3.87;;;;;;;;;;5072085;28;20482;-76
2022/06/16 13:01:43;;;;;;;4.10;3.83;;;;;;;;;;5072075;28;20565;-77
2022/06/16 13:04:12;;;;;;;4.40;4.10;;;;;;;;;;5071878;28;20456;-76
2022/06/16 13:06:39;;;;;;;7.13;4.27;;;;;;;;;;5071958;28;20490;-77
2022/06/16 13:09:11;;;;;;;3.80;3.50;;;;;;;;;;5058686;28;20477;-80
2022/06/16 13:11:47;;;;;;;4.40;4.00;;;;;;;;;;5052242;28;20837;-77
2022/06/16 13:14:21;;;;;;;3.80;3.50;;;;;;;;;;5051586;28;20436;-76
2022/06/16 13:16:49;;;;;;;3.90;3.60;;;;;;;;;;5052327;28;20453;-78
2022/06/16 13:19:18;;;;;;;3.43;3.20;;;;;;;;;;5051776;28;20938;-77
2022/06/16 13:21:49;;;;;;;3.73;3.43;;;;;;;;;;5053148;28;20519;-77
2022/06/16 13:24:21;;;;;;;3.83;3.53;;;;;;;;;;5052816;28;20824;-78
2022/06/16 13:26:57;;;;;;;3.60;3.30;;;;;;;;;;5052660;28;20838;-78
2022/06/16 13:29:29;;;;;;;5.37;3.47;;;;;;;;;;5051820;28;20485;-76
2022/06/16 13:31:58;;;;;;;4.27;3.40;;;;;;;;;;5051864;28;20453;-77
2022/06/16 13:34:43;;;;;;;4.63;3.20;;;;;;;;;;5058480;28;20764;-78
2022/06/16 13:37:26;;;;;;;4.70;3.70;;;;;;;;;;5062957;28;20873;-77
2022/06/16 13:39:55;;;;;;;4.77;3.33;;;;;;;;;;5056700;28;20567;-77
2022/06/16 13:42:41;;;;;;;3.60;3.30;;;;;;;;;;5059044;28;20448;-77
2022/06/16 13:45:20;;;;;;;4.00;3.60;;;;;;;;;;5058869;28;20453;-77
2022/06/16 13:48:07;;;;;;;3.00;2.77;;;;;;;;;;5059579;28;20655;-77
2022/06/16 13:50:43;;;;;;;4.03;3.53;;;;;;;;;;5061727;28;20481;-78
2022/06/16 13:53:11;;;;;;;3.93;3.63;;;;;;;;;;5054307;28;20449;-76
2022/06/16 13:55:39;;;;;;;3.40;3.20;;;;;;;;;;5052464;28;20468;-78
2022/06/16 13:58:24;;;;;;;4.33;3.70;;;;;;;;;;5052668;28;20448;-79
2022/06/16 14:01:05;;;;;;;3.80;3.50;;;;;;;;;;5052530;28;20462;-78
2022/06/16 14:03:32;;;;;;;5.73;4.10;;;;;;;;;;5052415;28;20486;-79
2022/06/16 14:06:04;;;;;;;4.13;3.83;;;;;;;;;;5052052;28;20479;-77
2022/06/16 14:08:31;;;;;;;4.50;4.10;;;;;;;;;;5061903;28;20484;-76
2022/06/16 14:11:13;;;;;;;5.50;4.10;;;;;;;;;;5072331;28;20538;-78
2022/06/16 14:13:41;;;;;;;10.30;4.43;;;;;;;;;;5072727;28;20445;-77
2022/06/16 14:16:21;;;;;;;4.53;4.10;;;;;;;;;;5072411;28;20445;-78
2022/06/16 14:18:51;;;;;;;4.23;3.93;;;;;;;;;;5072982;28;20448;-78
2022/06/16 14:21:20;;;;;;;4.57;4.20;;;;;;;;;;5074202;28;20555;-78
2022/06/16 14:23:50;;;;;;;4.23;3.93;;;;;;;;;;5072519;28;20436;-77
2022/06/16 14:26:18;;;;;;;5.80;5.03;;;;;;;;;;5071274;28;20436;-76
2022/06/16 14:28:47;;;;;;;6.93;4.40;;;;;;;;;;5071729;28;20519;-79
2022/06/16 14:31:17;;;;;;;5.73;4.63;;;;;;;;;;5071736;28;20465;-78
2022/06/16 14:33:47;;;;;;;4.60;4.30;;;;;;;;;;5071347;28;20440;-77
2022/06/16 14:36:16;;;;;;;4.50;4.20;;;;;;;;;;5074627;28;20437;-78
2022/06/16 14:38:47;;;;;;;5.57;4.50;;;;;;;;;;5076493;28;20853;-78
2022/06/16 14:41:18;;;;;;;4.90;4.43;;;;;;;;;;5074389;28;20530;-78
2022/06/16 14:43:49;;;;;;;4.90;4.40;;;;;;;;;;5075561;28;20449;-78
2022/06/16 14:46:19;;;;;;;4.57;4.17;;;;;;;;;;5076673;28;20459;-78
2022/06/16 14:48:49;;;;;;;4.53;4.23;;;;;;;;;;5075693;28;20994;-78
2022/06/16 14:51:18;;;;;;;4.30;4.00;;;;;;;;;;5073960;28;21140;-78
2022/06/16 14:53:47;;;;;;;4.50;4.20;;;;;;;;;;5075048;28;20441;-78
2022/06/16 14:56:15;;;;;;;5.10;4.60;;;;;;;;;;5075007;28;20866;-77
2022/06/16 14:58:46;;;;;;;4.80;4.40;;;;;;;;;;5074999;28;20853;-78
2022/06/16 15:01:13;;;;;;;8.83;4.53;;;;;;;;;;5074847;28;20468;-78
2022/06/16 15:03:42;;;;;;;4.00;3.80;;;;;;;;;;5075754;28;20830;-78
2022/06/16 15:06:11;;;;;;;4.60;4.30;;;;;;;;;;5075765;28;20893;-77
2022/06/16 15:08:39;;;;;;;4.10;3.50;;;;;;;;;;5064576;28;20629;-79
2022/06/16 15:11:09;;;;;;;5.03;3.83;;;;;;;;;;5055626;28;20487;-78
2022/06/16 15:13:37;;;;;;;4.57;4.20;;;;;;;;;;5055797;28;20442;-78
2022/06/16 15:16:06;;;;;;;5.07;4.67;;;;;;;;;;5055610;28;20835;-77